Wallace, Indiana
Current Conditions -  °F | °C
As of 11:55 AM on Friday 24 Oct 2014 (Local Time) from KDNV Reporting Station
Overcast Overcast  
Wind Chill: 56°   Ceiling: 2200
Heat Index: 56°   Visibility: 10mi
Dew Point: 49°   Wind: 5mph
Humidity: 79%   Direction: 240°WSW
Pressure: 30.08"   Gusts: NA
Location:  39.99°N, 87.15°W
Report Text: KDNV 241555Z AUTO 24004KT 10SM OVC022 13/10 A3008 RMK AO2 T01310096
Loading
Personal Weather Stations






























Interactive Weather Map
Tropical Storm Tracking
New forecast layout! Learn more

10-Day Weather Forecast

Advertisements
Track Severe Weather on mobile